Time;durP1;ratioP1;P1;durP2;ratioP2;P2;SDS_P1;SDS_P2;PMS_P1;PMS_P2;Temp;Humidity;BMP_temperature;BMP_pressure;BME280_temperature;BME280_humidity;BME280_pressure;Samples;Min_cycle;Max_cycle;Signal;HPM_P1;HPM_P2
2022/11/30 00:00:59;;;;;;;13.98;7.82;;;4.10;99.90;;;;;;5079893;28;20028;-80
2022/11/30 00:03:25;;;;;;;12.23;7.97;;;4.30;99.90;;;;;;5072208;28;20101;-80
2022/11/30 00:05:51;;;;;;;12.45;7.53;;;4.30;99.90;;;;;;5071625;28;20498;-80
2022/11/30 00:08:17;;;;;;;12.52;8.38;;;4.30;99.90;;;;;;5073412;28;20032;-80
2022/11/30 00:10:43;;;;;;;9.77;6.63;;;4.20;99.90;;;;;;5082679;28;20020;-80
2022/11/30 00:13:09;;;;;;;12.27;7.75;;;4.10;99.90;;;;;;5069949;28;20063;-80
2022/11/30 00:15:36;;;;;;;12.73;7.55;;;4.10;99.90;;;;;;5070571;28;20512;-79
2022/11/30 00:18:02;;;;;;;17.30;8.07;;;4.10;99.90;;;;;;5071732;28;20052;-80
2022/11/30 00:20:28;;;;;;;15.50;8.40;;;4.10;99.90;;;;;;5079169;28;20028;-80
2022/11/30 00:22:55;;;;;;;19.20;9.43;;;4.10;99.90;;;;;;5066870;28;20021;-79
2022/11/30 00:25:21;;;;;;;18.80;9.90;;;4.00;99.90;;;;;;5069988;28;20048;-80
2022/11/30 00:27:47;;;;;;;33.22;12.68;;;4.00;99.90;;;;;;5070012;28;20115;-80
2022/11/30 00:30:13;;;;;;;36.40;14.80;;;3.90;99.90;;;;;;5071355;28;20107;-80
2022/11/30 00:32:39;;;;;;;36.65;14.70;;;3.60;99.90;;;;;;5071226;28;20095;-80
2022/11/30 00:35:05;;;;;;;35.78;16.25;;;3.90;99.90;;;;;;5069682;28;20069;-80
2022/11/30 00:37:30;;;;;;;33.38;14.55;;;4.00;99.90;;;;;;5071264;28;20052;-80
2022/11/30 00:39:56;;;;;;;32.83;14.18;;;4.10;99.90;;;;;;5071296;28;20036;-79
2022/11/30 00:42:22;;;;;;;31.83;14.45;;;4.10;99.90;;;;;;5070860;28;20077;-79
2022/11/30 00:44:47;;;;;;;34.65;14.60;;;4.10;99.90;;;;;;5071338;28;20501;-79
2022/11/30 00:47:13;;;;;;;37.90;17.05;;;4.20;99.90;;;;;;5069395;28;20052;-79
2022/11/30 00:49:39;;;;;;;53.85;21.25;;;4.20;99.90;;;;;;5059605;28;20127;-80
2022/11/30 00:52:05;;;;;;;58.55;22.20;;;4.30;99.90;;;;;;5069750;28;20020;-79
2022/11/30 00:54:30;;;;;;;59.53;21.38;;;4.30;99.90;;;;;;5071122;28;20040;-80
2022/11/30 00:56:56;;;;;;;56.65;21.63;;;4.40;99.90;;;;;;5072069;28;20486;-79
2022/11/30 00:59:22;;;;;;;61.25;23.38;;;4.40;99.90;;;;;;5084782;28;20506;-79
2022/11/30 01:01:47;;;;;;;59.55;23.65;;;4.50;99.90;;;;;;5077691;28;20536;-80
2022/11/30 01:04:13;;;;;;;58.28;23.55;;;4.50;99.90;;;;;;5083151;28;20122;-79
2022/11/30 01:06:39;;;;;;;51.28;21.33;;;4.50;99.90;;;;;;5070641;28;20024;-79
2022/11/30 01:09:05;;;;;;;55.15;22.10;;;4.50;99.90;;;;;;5079042;28;20085;-80
2022/11/30 01:11:31;;;;;;;51.63;19.95;;;4.50;99.90;;;;;;5089805;28;20087;-80
2022/11/30 01:13:58;;;;;;;44.30;18.70;;;4.40;99.90;;;;;;5061743;28;20036;-80
2022/11/30 01:16:27;;;;;;;39.08;16.48;;;4.40;99.90;;;;;;5065538;28;20028;-79
2022/11/30 01:18:53;;;;;;;38.03;16.58;;;4.40;99.90;;;;;;5071306;28;20027;-80
2022/11/30 01:21:21;;;;;;;35.53;14.75;;;4.40;99.90;;;;;;5070884;28;20063;-79
2022/11/30 01:23:48;;;;;;;32.17;14.05;;;4.40;99.90;;;;;;5071001;28;20093;-80
2022/11/30 01:26:14;;;;;;;25.38;12.60;;;4.30;99.90;;;;;;5070709;28;20045;-80
2022/11/30 01:28:42;;;;;;;26.50;12.93;;;4.40;99.90;;;;;;5070558;28;20059;-79
2022/11/30 01:31:10;;;;;;;23.02;11.55;;;4.20;99.90;;;;;;5084236;28;20033;-80
2022/11/30 01:33:36;;;;;;;22.08;12.05;;;4.30;99.90;;;;;;5070742;28;20031;-79
2022/11/30 01:36:05;;;;;;;20.77;10.85;;;4.50;99.90;;;;;;5069415;28;20029;-79
2022/11/30 01:38:37;;;;;;;17.67;10.05;;;4.50;99.90;;;;;;5069239;28;20029;-79
2022/11/30 01:41:04;;;;;;;15.73;8.98;;;4.50;99.90;;;;;;5070359;28;20024;-78
2022/11/30 01:43:37;;;;;;;23.67;10.40;;;4.40;99.90;;;;;;5070123;28;20076;-78
2022/11/30 01:46:02;;;;;;;19.38;9.40;;;4.50;99.90;;;;;;5070515;28;20028;-78
2022/11/30 01:48:28;;;;;;;14.15;8.90;;;4.40;99.90;;;;;;5073528;28;20028;-78
2022/11/30 01:50:55;;;;;;;15.48;8.93;;;4.20;99.90;;;;;;5074649;28;20023;-78
2022/11/30 01:53:21;;;;;;;14.25;9.00;;;4.10;99.90;;;;;;5073351;28;20032;-78
2022/11/30 01:55:48;;;;;;;14.98;8.32;;;4.20;99.90;;;;;;5072946;28;20106;-78
2022/11/30 01:58:23;;;;;;;12.35;8.07;;;4.30;99.90;;;;;;5074385;28;20411;-78
2022/11/30 02:00:49;;;;;;;12.35;7.90;;;4.30;99.90;;;;;;5077850;28;20501;-78
2022/11/30 02:03:34;;;;;;;13.25;8.82;;;4.30;99.90;;;;;;5067578;28;20139;-78
2022/11/30 02:06:00;;;;;;;13.98;7.68;;;4.20;99.90;;;;;;5062780;28;20020;-78
2022/11/30 02:08:27;;;;;;;14.02;8.02;;;4.20;99.90;;;;;;5074341;28;20017;-78
2022/11/30 02:10:57;;;;;;;11.85;7.68;;;4.10;99.90;;;;;;5072835;28;20566;-78
2022/11/30 02:13:36;;;;;;;13.00;7.47;;;4.00;99.90;;;;;;5073908;28;20070;-78
2022/11/30 02:16:26;;;;;;;14.25;7.78;;;4.00;99.90;;;;;;5074050;28;20063;-78
2022/11/30 02:19:12;;;;;;;11.73;7.43;;;4.00;99.90;;;;;;5061667;28;20028;-78
2022/11/30 02:22:08;;;;;;;11.38;7.13;;;4.10;99.90;;;;;;5049708;28;20086;-78
2022/11/30 02:24:34;;;;;;;10.18;6.72;;;4.00;99.90;;;;;;5073330;28;20044;-78
2022/11/30 02:27:28;;;;;;;11.30;6.90;;;4.10;99.90;;;;;;5072273;28;20024;-78
2022/11/30 02:30:03;;;;;;;10.73;6.55;;;4.20;99.90;;;;;;5073413;28;20078;-78
2022/11/30 02:32:33;;;;;;;9.10;6.30;;;4.10;99.90;;;;;;5085236;28;20028;-78
2022/11/30 02:35:02;;;;;;;7.70;6.07;;;4.10;99.90;;;;;;5059639;28;20039;-78
2022/11/30 02:37:29;;;;;;;10.30;6.00;;;3.90;99.90;;;;;;5087078;28;20170;-78
2022/11/30 02:39:55;;;;;;;10.73;6.78;;;4.00;99.90;;;;;;5073349;28;20066;-78
2022/11/30 02:42:20;;;;;;;8.38;5.68;;;4.00;99.90;;;;;;5073190;28;20078;-78
2022/11/30 02:44:49;;;;;;;11.63;6.68;;;4.10;99.90;;;;;;5072607;28;20052;-78
2022/11/30 02:47:18;;;;;;;9.55;5.93;;;4.00;99.90;;;;;;5073010;28;20119;-78
2022/11/30 02:50:14;;;;;;;9.15;5.90;;;4.10;99.90;;;;;;5073569;28;20021;-78
2022/11/30 02:52:40;;;;;;;7.97;5.60;;;4.30;99.90;;;;;;5071707;28;20056;-78
2022/11/30 02:55:09;;;;;;;11.50;6.35;;;4.40;99.90;;;;;;5073457;28;20283;-78
2022/11/30 02:57:35;;;;;;;12.13;6.85;;;4.40;99.90;;;;;;5059142;28;20524;-78
2022/11/30 03:00:06;;;;;;;11.25;7.00;;;4.50;99.90;;;;;;5065314;28;20029;-78
2022/11/30 03:02:32;;;;;;;10.17;6.10;;;4.50;99.90;;;;;;5075773;28;20596;-78
2022/11/30 03:04:58;;;;;;;9.80;6.80;;;4.60;99.90;;;;;;5073243;28;20020;-78
2022/11/30 03:07:23;;;;;;;10.82;6.60;;;4.60;99.90;;;;;;5073018;28;20406;-78
2022/11/30 03:09:49;;;;;;;9.57;6.80;;;4.60;99.90;;;;;;5073073;28;20052;-78
2022/11/30 03:12:15;;;;;;;11.57;6.43;;;4.70;99.90;;;;;;5072655;28;20436;-78
2022/11/30 03:14:40;;;;;;;9.07;6.63;;;4.60;99.90;;;;;;5069661;28;20024;-78
2022/11/30 03:17:06;;;;;;;12.80;6.65;;;4.50;99.90;;;;;;5072867;28;20025;-78
2022/11/30 03:19:32;;;;;;;9.32;6.68;;;4.50;99.90;;;;;;5072919;28;20529;-79
2022/11/30 03:21:58;;;;;;;10.82;6.55;;;4.40;99.90;;;;;;5059005;28;20040;-78
2022/11/30 03:24:24;;;;;;;10.50;7.65;;;4.40;99.90;;;;;;5072822;28;20032;-79
2022/11/30 03:26:50;;;;;;;15.15;8.32;;;4.30;99.90;;;;;;5072141;28;20115;-78
2022/11/30 03:29:17;;;;;;;12.27;6.90;;;4.20;99.90;;;;;;5072472;28;20104;-78
2022/11/30 03:31:42;;;;;;;10.40;6.47;;;4.20;99.90;;;;;;5059304;28;20024;-78
2022/11/30 03:34:08;;;;;;;14.30;7.35;;;4.10;99.90;;;;;;5071244;28;20032;-79
2022/11/30 03:36:34;;;;;;;10.73;7.10;;;4.10;99.90;;;;;;5072245;28;20039;-78
2022/11/30 03:39:00;;;;;;;10.63;6.50;;;4.10;99.90;;;;;;5072304;28;20035;-78
2022/11/30 03:41:26;;;;;;;9.45;6.40;;;4.30;99.90;;;;;;5073003;28;20516;-78
2022/11/30 03:43:51;;;;;;;10.25;5.72;;;4.20;99.90;;;;;;5074446;28;20528;-78
2022/11/30 03:46:17;;;;;;;10.80;6.75;;;4.20;99.90;;;;;;5070804;28;20043;-78
2022/11/30 03:48:43;;;;;;;11.18;6.30;;;4.20;99.90;;;;;;5070932;28;20070;-78
2022/11/30 03:51:11;;;;;;;10.52;6.25;;;4.00;99.90;;;;;;5070910;28;20025;-79
2022/11/30 03:53:37;;;;;;;10.63;6.68;;;4.10;99.90;;;;;;5072243;28;20033;-78
2022/11/30 03:56:05;;;;;;;12.35;7.32;;;4.10;99.90;;;;;;5072205;28;20513;-78
2022/11/30 03:58:31;;;;;;;14.27;7.82;;;3.90;99.90;;;;;;5071756;28;20031;-79
2022/11/30 04:01:04;;;;;;;14.98;6.95;;;3.80;99.90;;;;;;5072184;28;20111;-78
2022/11/30 04:03:30;;;;;;;10.55;6.60;;;3.90;99.90;;;;;;5070851;28;20116;-78
2022/11/30 04:05:57;;;;;;;11.60;7.13;;;4.00;99.90;;;;;;5071643;28;20035;-78
2022/11/30 04:08:23;;;;;;;11.52;7.00;;;4.00;99.90;;;;;;5071791;28;20016;-79
2022/11/30 04:10:54;;;;;;;10.30;6.65;;;4.00;99.90;;;;;;5071070;28;20046;-78
2022/11/30 04:13:20;;;;;;;7.80;5.97;;;4.10;99.90;;;;;;5073423;28;20028;-78
2022/11/30 04:15:47;;;;;;;10.80;6.40;;;4.10;99.90;;;;;;5070284;28;20024;-78
2022/11/30 04:18:14;;;;;;;8.55;5.93;;;3.80;99.90;;;;;;5071576;28;20043;-78
2022/11/30 04:20:40;;;;;;;8.50;5.68;;;3.80;99.90;;;;;;5070378;28;20700;-79
2022/11/30 04:23:06;;;;;;;8.32;6.10;;;3.90;99.90;;;;;;5071604;28;20078;-78
2022/11/30 04:25:32;;;;;;;9.82;5.95;;;3.90;99.90;;;;;;5071215;28;20106;-78
2022/11/30 04:27:57;;;;;;;7.32;5.18;;;3.80;99.90;;;;;;5071344;28;20052;-78
2022/11/30 04:30:23;;;;;;;7.50;5.20;;;3.90;99.90;;;;;;5069638;28;20028;-78
2022/11/30 04:32:49;;;;;;;7.45;5.47;;;4.00;99.90;;;;;;5071408;28;20439;-78
2022/11/30 04:35:14;;;;;;;7.47;5.18;;;3.90;99.90;;;;;;5071167;28;20028;-79
2022/11/30 04:37:40;;;;;;;6.90;4.80;;;4.00;99.90;;;;;;5084823;28;20050;-78
2022/11/30 04:40:06;;;;;;;8.38;5.20;;;4.00;99.90;;;;;;5071508;28;20024;-78
2022/11/30 04:42:32;;;;;;;7.35;4.90;;;3.90;99.90;;;;;;5070604;28;20071;-78
2022/11/30 04:44:58;;;;;;;9.45;5.88;;;4.00;99.90;;;;;;5071118;28;20028;-78
2022/11/30 04:47:23;;;;;;;9.70;5.85;;;3.90;99.90;;;;;;5070870;28;20020;-78
2022/11/30 04:49:49;;;;;;;6.88;5.15;;;3.80;99.90;;;;;;5071106;28;20056;-78
2022/11/30 04:52:15;;;;;;;7.68;4.80;;;3.80;99.90;;;;;;5071357;28;20031;-78
2022/11/30 04:54:40;;;;;;;7.55;4.60;;;3.90;99.90;;;;;;5071290;28;20558;-78
2022/11/30 04:57:06;;;;;;;6.25;4.28;;;4.00;99.90;;;;;;5070845;28;20032;-78
2022/11/30 04:59:32;;;;;;;6.15;4.18;;;4.00;99.90;;;;;;5070982;28;20099;-78
2022/11/30 05:01:57;;;;;;;7.13;4.50;;;4.00;99.90;;;;;;5070903;28;20421;-78
2022/11/30 05:04:23;;;;;;;5.72;4.22;;;4.10;99.90;;;;;;5069472;28;20028;-78
2022/11/30 05:06:49;;;;;;;7.13;4.20;;;4.20;99.90;;;;;;5070639;28;20036;-78
2022/11/30 05:09:14;;;;;;;6.25;4.90;;;4.20;99.90;;;;;;5080533;28;20063;-78
2022/11/30 05:11:40;;;;;;;5.07;4.18;;;4.00;99.90;;;;;;5087884;28;20493;-78
2022/11/30 05:14:06;;;;;;;5.82;4.20;;;4.10;99.90;;;;;;5060592;28;20594;-78
2022/11/30 05:16:31;;;;;;;5.28;3.50;;;4.20;99.90;;;;;;5067106;28;20043;-78
2022/11/30 05:18:57;;;;;;;6.38;4.10;;;4.30;99.90;;;;;;5071078;28;20056;-78
2022/11/30 05:21:23;;;;;;;6.60;4.15;;;4.30;99.90;;;;;;5070530;28;20028;-78
2022/11/30 05:23:48;;;;;;;7.03;4.72;;;4.30;99.90;;;;;;5070634;28;20571;-78
2022/11/30 05:26:14;;;;;;;6.00;4.20;;;4.20;99.90;;;;;;5069228;28;20059;-78
2022/11/30 05:28:40;;;;;;;6.25;4.70;;;4.20;99.90;;;;;;5070818;28;20021;-78
2022/11/30 05:31:06;;;;;;;5.82;4.80;;;4.20;99.90;;;;;;5073393;28;20611;-78
2022/11/30 05:33:32;;;;;;;7.28;5.55;;;4.20;99.90;;;;;;5089478;28;20042;-78
2022/11/30 05:35:58;;;;;;;6.70;4.78;;;4.30;99.90;;;;;;5074303;28;20036;-78
2022/11/30 05:38:24;;;;;;;7.70;4.97;;;4.20;99.90;;;;;;5070942;28;20020;-78
2022/11/30 05:40:49;;;;;;;8.43;4.97;;;4.30;99.90;;;;;;5073428;28;20039;-78
2022/11/30 05:43:15;;;;;;;7.90;5.30;;;4.30;99.90;;;;;;5080913;28;20024;-78
2022/11/30 05:45:41;;;;;;;8.55;5.40;;;4.30;99.90;;;;;;5070179;28;20036;-78
2022/11/30 05:48:07;;;;;;;8.20;5.00;;;4.20;99.90;;;;;;5070460;28;20017;-78
2022/11/30 05:50:32;;;;;;;7.18;4.57;;;4.30;99.90;;;;;;5070513;28;20029;-78
2022/11/30 05:52:59;;;;;;;8.15;5.05;;;4.30;99.90;;;;;;5059148;28;20020;-78
2022/11/30 05:55:27;;;;;;;7.18;4.95;;;4.20;99.90;;;;;;5070444;28;20029;-78
2022/11/30 05:57:53;;;;;;;8.05;5.50;;;4.30;99.90;;;;;;5070537;28;20266;-78
2022/11/30 06:00:20;;;;;;;8.13;4.70;;;4.40;99.90;;;;;;5080413;28;20028;-78
2022/11/30 06:02:46;;;;;;;8.93;5.00;;;4.40;99.90;;;;;;5070481;28;20021;-78
2022/11/30 06:05:12;;;;;;;6.88;4.53;;;4.50;99.90;;;;;;5070070;28;20473;-78
2022/11/30 06:07:39;;;;;;;8.15;5.07;;;4.40;99.90;;;;;;5070304;28;20110;-77
2022/11/30 06:10:05;;;;;;;10.40;5.22;;;4.50;99.90;;;;;;5070455;28;20017;-78
2022/11/30 06:12:31;;;;;;;6.18;4.80;;;4.60;99.90;;;;;;5070201;28;20024;-78
2022/11/30 06:14:57;;;;;;;9.05;4.70;;;4.50;99.90;;;;;;5069820;28;20025;-77
2022/11/30 06:17:22;;;;;;;8.18;5.10;;;4.50;99.90;;;;;;5068946;28;20021;-78
2022/11/30 06:19:49;;;;;;;11.05;4.75;;;4.40;99.90;;;;;;5068558;28;20028;-78
2022/11/30 06:22:15;;;;;;;8.85;5.18;;;4.50;99.90;;;;;;5070441;28;20066;-78
2022/11/30 06:24:40;;;;;;;9.05;4.63;;;4.60;99.90;;;;;;5069996;28;20036;-78
2022/11/30 06:27:06;;;;;;;10.57;4.63;;;4.60;99.90;;;;;;5069778;28;20175;-78
2022/11/30 06:29:32;;;;;;;7.93;4.53;;;4.70;99.90;;;;;;5068535;28;20024;-78
2022/11/30 06:31:57;;;;;;;8.00;4.90;;;4.70;99.90;;;;;;5070160;28;20533;-78
2022/11/30 06:34:23;;;;;;;9.77;5.05;;;4.60;99.90;;;;;;5072980;28;20017;-78
2022/11/30 06:36:49;;;;;;;10.63;5.07;;;4.50;99.90;;;;;;5073594;28;20063;-78
2022/11/30 06:39:14;;;;;;;8.60;5.10;;;4.40;99.90;;;;;;5072016;28;20059;-78
2022/11/30 06:41:40;;;;;;;10.10;5.75;;;4.40;99.90;;;;;;5073719;28;20025;-78
2022/11/30 06:44:09;;;;;;;9.50;5.05;;;4.40;99.90;;;;;;5073596;28;20166;-78
2022/11/30 06:46:35;;;;;;;8.20;5.10;;;4.50;99.90;;;;;;5073289;28;20498;-78
2022/11/30 06:49:01;;;;;;;6.88;4.70;;;4.60;99.90;;;;;;5073267;28;20025;-78
2022/11/30 06:51:27;;;;;;;8.02;4.75;;;4.60;99.90;;;;;;5073586;28;20025;-78
2022/11/30 06:53:52;;;;;;;9.15;5.50;;;4.50;99.90;;;;;;5073225;28;20147;-78
2022/11/30 06:56:18;;;;;;;11.32;5.47;;;4.40;99.90;;;;;;5073425;28;20525;-78
2022/11/30 06:58:44;;;;;;;7.60;4.50;;;4.50;99.90;;;;;;5073121;28;20099;-78
2022/11/30 07:01:12;;;;;;;8.55;4.65;;;4.50;99.90;;;;;;5079898;28;20036;-78
2022/11/30 07:03:39;;;;;;;9.35;5.38;;;4.60;99.90;;;;;;5073174;28;20024;-78
2022/11/30 07:06:12;;;;;;;7.07;4.13;;;4.60;99.90;;;;;;5073091;28;20036;-79
2022/11/30 07:08:39;;;;;;;5.85;4.10;;;4.70;99.90;;;;;;5073016;28;20076;-78
2022/11/30 07:11:06;;;;;;;7.93;4.70;;;4.90;99.90;;;;;;5071590;28;20028;-78
2022/11/30 07:13:32;;;;;;;8.85;5.28;;;4.90;99.90;;;;;;5072035;28;20020;-78
2022/11/30 07:15:58;;;;;;;10.35;5.05;;;4.90;99.90;;;;;;5072794;28;20044;-78
2022/11/30 07:18:23;;;;;;;8.50;5.32;;;4.90;99.90;;;;;;5072570;28;20567;-78
2022/11/30 07:20:49;;;;;;;9.82;5.50;;;4.70;99.90;;;;;;5072730;28;20029;-78
2022/11/30 07:26:08;;;;;;;11.30;5.95;;;4.80;99.90;;;;;;5072804;28;20063;-78
2022/11/30 07:28:49;;;;;;;11.48;6.45;;;4.90;99.90;;;;;;5062929;28;20025;-78
2022/11/30 07:31:26;;;;;;;11.70;6.72;;;5.00;99.90;;;;;;5072017;28;20032;-78
2022/11/30 07:33:52;;;;;;;14.50;7.95;;;5.10;99.90;;;;;;5072220;28;20025;-78
2022/11/30 07:36:19;;;;;;;10.68;6.72;;;5.10;99.90;;;;;;5085564;28;20025;-78
2022/11/30 07:38:46;;;;;;;13.73;7.35;;;5.10;99.90;;;;;;5084642;28;20024;-78
2022/11/30 07:41:12;;;;;;;12.90;6.75;;;5.10;99.90;;;;;;5072649;28;20028;-78
2022/11/30 07:43:37;;;;;;;11.52;6.47;;;5.20;99.90;;;;;;5081618;28;20028;-78
2022/11/30 07:46:04;;;;;;;13.07;7.40;;;5.20;99.90;;;;;;5071007;28;20115;-77
2022/11/30 07:48:29;;;;;;;11.85;6.72;;;5.20;99.90;;;;;;5068851;28;20420;-77
2022/11/30 07:51:05;;;;;;;12.13;7.72;;;5.30;99.90;;;;;;5076454;28;20024;-77
2022/11/30 07:53:31;;;;;;;13.13;7.38;;;5.40;99.90;;;;;;5081415;28;20055;-78
2022/11/30 07:56:05;;;;;;;11.45;7.57;;;5.20;99.90;;;;;;5076159;28;20068;-78
2022/11/30 07:58:31;;;;;;;10.43;7.65;;;5.20;99.90;;;;;;5071759;28;20058;-78
2022/11/30 08:01:01;;;;;;;10.30;7.18;;;5.30;99.90;;;;;;5070202;28;20064;-78
2022/11/30 08:03:27;;;;;;;11.45;7.07;;;5.40;99.90;;;;;;5072747;28;20502;-78
2022/11/30 08:05:52;;;;;;;11.23;7.00;;;5.40;99.90;;;;;;5079365;28;20433;-78
2022/11/30 08:08:18;;;;;;;12.55;7.20;;;5.40;99.90;;;;;;5073156;28;20549;-78
2022/11/30 08:10:43;;;;;;;10.80;7.25;;;5.50;99.90;;;;;;5071302;28;20449;-78
2022/11/30 08:13:09;;;;;;;10.15;6.72;;;5.50;99.90;;;;;;5070547;28;20025;-78
2022/11/30 08:15:35;;;;;;;10.75;7.10;;;5.60;99.90;;;;;;5070887;28;20193;-77
2022/11/30 08:18:04;;;;;;;10.13;6.95;;;5.60;99.90;;;;;;5079622;28;20459;-78
2022/11/30 08:20:29;;;;;;;10.38;7.47;;;5.60;99.90;;;;;;5070313;28;20024;-78
2022/11/30 08:22:57;;;;;;;9.00;6.63;;;5.60;99.90;;;;;;5071403;28;20047;-77
2022/11/30 08:25:23;;;;;;;10.50;7.38;;;5.50;99.90;;;;;;5069506;28;20083;-78
2022/11/30 08:27:48;;;;;;;10.82;7.63;;;5.40;99.90;;;;;;5068933;28;20029;-77
2022/11/30 08:30:14;;;;;;;10.90;6.80;;;5.50;99.90;;;;;;5070371;28;20371;-77
2022/11/30 08:32:40;;;;;;;12.77;8.23;;;5.40;99.90;;;;;;5070570;28;20383;-77
2022/11/30 08:35:06;;;;;;;12.93;8.23;;;5.40;99.90;;;;;;5082714;28;20411;-78
2022/11/30 08:37:36;;;;;;;12.85;7.65;;;5.40;99.90;;;;;;5069805;28;20017;-78
2022/11/30 08:40:02;;;;;;;12.95;7.53;;;5.40;99.90;;;;;;5080709;28;20020;-78
2022/11/30 08:42:28;;;;;;;14.13;8.05;;;5.50;99.90;;;;;;5069546;28;20043;-79
2022/11/30 08:44:53;;;;;;;10.65;7.63;;;5.50;99.90;;;;;;5080083;28;20501;-79
2022/11/30 08:47:19;;;;;;;11.55;7.95;;;5.60;99.90;;;;;;5071282;28;20464;-78
2022/11/30 08:49:45;;;;;;;11.15;8.05;;;5.60;99.90;;;;;;5070554;28;20370;-79
2022/11/30 08:52:10;;;;;;;11.02;7.32;;;5.60;99.90;;;;;;5084854;28;21062;-78
2022/11/30 08:54:37;;;;;;;11.32;7.60;;;5.50;99.90;;;;;;5080181;28;20033;-78
2022/11/30 08:57:03;;;;;;;11.63;8.38;;;5.40;99.90;;;;;;5084828;28;20124;-78
2022/11/30 08:59:30;;;;;;;12.90;8.13;;;5.50;99.90;;;;;;5069424;28;20115;-78
2022/11/30 09:01:56;;;;;;;11.00;7.95;;;5.50;99.90;;;;;;5069249;28;20027;-78
2022/11/30 09:04:21;;;;;;;11.77;7.95;;;5.50;99.90;;;;;;5074247;28;20024;-79
2022/11/30 09:06:47;;;;;;;11.02;7.13;;;5.60;99.90;;;;;;5073996;28;20115;-77
2022/11/30 09:09:13;;;;;;;14.25;9.80;;;5.60;99.90;;;;;;5079280;28;20058;-78
2022/11/30 09:11:38;;;;;;;13.68;8.18;;;5.40;99.90;;;;;;5068024;28;20064;-80
2022/11/30 09:14:04;;;;;;;10.82;7.40;;;5.60;99.90;;;;;;5069731;28;20021;-80
2022/11/30 09:16:30;;;;;;;11.30;7.93;;;5.70;99.90;;;;;;5068151;28;20036;-78
2022/11/30 09:18:56;;;;;;;12.02;8.20;;;5.60;99.90;;;;;;5093463;28;20028;-78
2022/11/30 09:21:24;;;;;;;12.05;7.88;;;5.70;99.90;;;;;;5072168;28;20028;-79
2022/11/30 09:23:50;;;;;;;11.80;8.75;;;5.60;99.90;;;;;;5069807;28;20020;-78
2022/11/30 09:26:17;;;;;;;11.23;8.05;;;5.50;99.90;;;;;;5069589;28;20059;-78
2022/11/30 09:28:44;;;;;;;10.45;8.07;;;5.70;99.90;;;;;;5085283;28;20062;-78
2022/11/30 09:31:29;;;;;;;10.15;7.50;;;5.50;99.90;;;;;;5069683;28;20566;-79
2022/11/30 09:33:56;;;;;;;13.20;8.02;;;5.70;99.90;;;;;;5076703;28;20055;-79
2022/11/30 09:36:26;;;;;;;13.05;9.05;;;5.60;99.90;;;;;;5069747;28;20052;-78
2022/11/30 09:38:53;;;;;;;10.32;7.55;;;5.70;99.90;;;;;;5067811;28;20028;-78
2022/11/30 09:41:37;;;;;;;11.57;7.85;;;5.90;99.90;;;;;;5068518;28;20029;-78
2022/11/30 09:44:05;;;;;;;11.27;7.57;;;6.00;99.90;;;;;;5085489;28;20060;-78
2022/11/30 09:46:45;;;;;;;12.32;8.32;;;6.00;99.90;;;;;;5068103;28;20039;-78
2022/11/30 09:49:36;;;;;;;11.77;8.60;;;5.70;99.90;;;;;;5068127;28;20047;-78
2022/11/30 09:52:07;;;;;;;13.07;8.97;;;5.90;99.90;;;;;;5060976;28;20078;-78
2022/11/30 09:54:39;;;;;;;10.45;7.57;;;6.00;99.90;;;;;;5068218;28;20025;-78
2022/11/30 09:57:41;;;;;;;10.07;7.35;;;6.10;99.90;;;;;;5069236;28;20338;-78
2022/11/30 10:00:21;;;;;;;9.93;7.43;;;6.10;99.90;;;;;;5068755;28;20036;-78
2022/11/30 10:02:54;;;;;;;10.23;8.20;;;6.00;99.90;;;;;;5061332;28;20075;-77
2022/11/30 10:05:49;;;;;;;11.07;8.57;;;6.00;99.90;;;;;;5082675;28;20039;-78
2022/11/30 10:08:43;;;;;;;10.90;8.32;;;6.00;99.90;;;;;;5069019;28;20032;-78
2022/11/30 10:11:44;;;;;;;9.65;7.47;;;6.20;99.90;;;;;;5071596;28;20513;-77
2022/11/30 10:14:36;;;;;;;14.13;9.48;;;6.20;99.90;;;;;;5000749;28;20061;-77
2022/11/30 10:17:05;;;;;;;11.68;9.13;;;5.90;99.90;;;;;;4978391;28;20034;-77
2022/11/30 10:19:46;;;;;;;12.57;9.00;;;6.00;99.90;;;;;;4975261;28;20061;-77
2022/11/30 10:22:25;;;;;;;12.07;8.55;;;6.10;99.90;;;;;;5010595;28;20073;-77
2022/11/30 10:25:15;;;;;;;14.68;9.95;;;6.10;99.90;;;;;;4986102;28;20229;-77
2022/11/30 10:27:50;;;;;;;14.20;9.40;;;6.00;99.90;;;;;;5010070;28;20026;-77
2022/11/30 10:30:24;;;;;;;12.88;9.45;;;6.00;99.90;;;;;;5000896;28;20500;-77
2022/11/30 10:32:56;;;;;;;13.00;9.40;;;6.10;99.90;;;;;;4974280;28;20053;-77
2022/11/30 10:35:32;;;;;;;;;;;6.20;99.90;;;;;;4995946;28;20060;-77
2022/11/30 10:38:03;;;;;;;13.88;9.02;;;6.20;99.90;;;;;;4990732;28;19905;-77
2022/11/30 10:41:04;;;;;;;12.57;9.45;;;6.20;99.90;;;;;;5006952;28;20038;-77
2022/11/30 10:43:37;;;;;;;12.43;9.20;;;6.10;99.90;;;;;;4993156;28;20042;-77
2022/11/30 10:46:03;;;;;;;14.93;9.57;;;6.20;99.90;;;;;;4994185;28;20026;-77
2022/11/30 10:48:32;;;;;;;11.32;8.75;;;6.20;99.90;;;;;;5031432;28;20094;-77
2022/11/30 10:50:59;;;;;;;13.35;10.40;;;6.20;99.90;;;;;;5072925;28;20021;-77
2022/11/30 10:53:25;;;;;;;15.25;11.57;;;6.10;99.90;;;;;;5071384;28;20486;-77
2022/11/30 10:56:10;;;;;;;15.15;10.38;;;6.10;99.90;;;;;;5072555;28;20029;-77
2022/11/30 10:58:58;;;;;;;16.38;11.43;;;6.20;99.90;;;;;;5072434;28;20024;-77
2022/11/30 11:01:38;;;;;;;15.63;12.13;;;6.10;99.90;;;;;;5072724;28;20070;-77
2022/11/30 11:04:08;;;;;;;15.68;12.23;;;6.10;99.90;;;;;;5071220;28;20029;-77
2022/11/30 11:06:34;;;;;;;19.13;13.10;;;6.10;99.90;;;;;;5087671;28;20038;-77
2022/11/30 11:09:28;;;;;;;18.95;12.98;;;6.00;99.90;;;;;;5071636;28;20025;-77
2022/11/30 11:12:03;;;;;;;19.25;13.50;;;6.00;99.90;;;;;;5087715;28;20171;-77
2022/11/30 11:14:29;;;;;;;17.90;12.55;;;6.10;99.90;;;;;;5083999;28;20035;-77
2022/11/30 11:16:58;;;;;;;19.70;12.52;;;6.10;99.90;;;;;;5078329;28;20450;-77
2022/11/30 11:19:30;;;;;;;15.95;10.98;;;6.10;99.90;;;;;;5082522;28;20020;-77
2022/11/30 11:21:56;;;;;;;;;;;6.20;99.90;;;;;;5059793;28;20036;-77
2022/11/30 11:24:26;;;;;;;16.73;12.38;;;6.00;99.90;;;;;;5070726;28;19904;-77
2022/11/30 11:26:54;;;;;;;14.73;11.35;;;5.90;99.90;;;;;;5071645;28;20045;-77
2022/11/30 11:29:32;;;;;;;13.70;10.32;;;5.90;99.90;;;;;;5069562;28;20033;-77
2022/11/30 11:32:21;;;;;;;13.48;10.40;;;6.20;99.90;;;;;;5072295;28;20044;-77
2022/11/30 11:34:47;;;;;;;15.20;11.05;;;6.20;99.90;;;;;;5070300;28;20500;-77
2022/11/30 11:37:22;;;;;;;16.33;11.80;;;6.20;99.90;;;;;;5072105;28;20062;-77
2022/11/30 11:40:16;;;;;;;17.00;11.70;;;6.20;99.90;;;;;;5072256;28;20035;-77
2022/11/30 11:42:49;;;;;;;18.25;12.45;;;6.10;99.90;;;;;;5071896;28;20032;-77
2022/11/30 11:45:19;;;;;;;17.73;13.18;;;6.20;99.90;;;;;;5086889;28;20124;-77
2022/11/30 11:47:45;;;;;;;16.83;13.15;;;6.10;99.90;;;;;;5081343;28;20017;-77
2022/11/30 11:50:32;;;;;;;15.82;12.52;;;6.10;99.90;;;;;;5077960;28;20016;-77
2022/11/30 11:53:23;;;;;;;15.70;12.00;;;6.10;99.90;;;;;;5092341;28;20054;-77
2022/11/30 11:56:04;;;;;;;15.52;12.32;;;6.20;99.90;;;;;;5090847;28;20039;-77
2022/11/30 11:58:53;;;;;;;17.60;12.20;;;6.20;99.90;;;;;;5091819;28;20028;-77
2022/11/30 12:01:37;;;;;;;16.10;10.95;;;6.40;99.90;;;;;;5072558;28;20550;-77
2022/11/30 12:04:34;;;;;;;16.98;12.35;;;6.50;99.90;;;;;;5071019;28;20036;-77
2022/11/30 12:07:03;;;;;;;14.90;11.38;;;6.30;99.90;;;;;;5086949;28;20115;-77
2022/11/30 12:09:44;;;;;;;16.23;12.05;;;6.30;99.90;;;;;;5071411;28;20024;-77
2022/11/30 12:12:12;;;;;;;13.68;10.77;;;6.30;99.90;;;;;;5071422;28;20074;-77
2022/11/30 12:14:37;;;;;;;17.33;12.50;;;6.40;99.90;;;;;;5083610;28;20032;-77
2022/11/30 12:17:18;;;;;;;15.18;11.68;;;6.20;99.90;;;;;;5090047;28;20027;-77
2022/11/30 12:20:00;;;;;;;15.67;11.80;;;6.20;99.90;;;;;;5089963;28;20020;-77
2022/11/30 12:22:31;;;;;;;14.93;11.65;;;6.30;99.90;;;;;;5078883;28;20021;-77
2022/11/30 12:25:03;;;;;;;14.57;11.32;;;6.40;99.90;;;;;;5069546;28;20132;-77
2022/11/30 12:27:46;;;;;;;13.05;10.57;;;6.40;99.90;;;;;;5070904;28;20042;-77
2022/11/30 12:30:22;;;;;;;15.32;10.95;;;6.50;99.90;;;;;;5057716;28;20052;-77
2022/11/30 12:33:17;;;;;;;14.13;10.85;;;6.30;99.90;;;;;;5070868;28;20017;-77
2022/11/30 12:35:42;;;;;;;15.88;10.52;;;6.50;99.90;;;;;;5069725;28;20040;-77
2022/11/30 12:38:23;;;;;;;16.55;12.27;;;6.30;99.90;;;;;;5071401;28;20481;-77
2022/11/30 12:40:51;;;;;;;16.83;11.65;;;6.20;99.90;;;;;;5086821;28;20516;-77
2022/11/30 12:43:46;;;;;;;15.60;11.70;;;6.30;99.90;;;;;;5070499;28;20028;-77
2022/11/30 12:46:37;;;;;;;14.35;10.65;;;6.30;99.90;;;;;;5070770;28;20036;-77
2022/11/30 12:49:38;;;;;;;16.13;11.57;;;6.30;99.90;;;;;;5069220;28;20111;-77
2022/11/30 12:52:39;;;;;;;14.63;10.67;;;6.20;99.90;;;;;;5069504;28;20119;-77
2022/11/30 12:55:26;;;;;;;14.40;10.52;;;6.30;99.90;;;;;;5070611;28;20835;-77
2022/11/30 12:58:10;;;;;;;14.52;10.63;;;6.10;99.90;;;;;;5070784;28;20013;-77
2022/11/30 13:00:58;;;;;;;15.20;10.85;;;6.30;99.90;;;;;;5070534;28;20028;-77
2022/11/30 13:03:52;;;;;;;12.63;9.43;;;6.30;99.90;;;;;;5070877;28;20021;-77
2022/11/30 13:06:45;;;;;;;11.63;10.02;;;6.40;99.90;;;;;;5071303;28;20034;-77